createdAt,value
2019-05-22T00:02:10.737Z,11.80
2019-05-22T00:04:38.363Z,11.90
2019-05-22T00:07:08.419Z,11.90
2019-05-22T00:09:36.677Z,11.80
2019-05-22T00:12:04.947Z,11.80
2019-05-22T00:14:33.340Z,12.00
2019-05-22T00:17:00.843Z,12.00
2019-05-22T00:19:28.336Z,12.00
2019-05-22T00:21:58.413Z,11.80
2019-05-22T00:24:26.723Z,11.80
2019-05-22T00:26:54.250Z,11.80
2019-05-22T00:29:22.597Z,11.90
2019-05-22T00:31:50.200Z,11.90
2019-05-22T00:34:17.915Z,11.90
2019-05-22T00:36:45.425Z,12.00
2019-05-22T00:39:13.688Z,11.80
2019-05-22T00:41:41.949Z,11.80
2019-05-22T00:44:09.431Z,11.80
2019-05-22T00:46:36.913Z,11.80
2019-05-22T00:49:05.345Z,11.80
2019-05-22T00:51:35.281Z,11.80
2019-05-22T00:54:23.490Z,11.90
2019-05-22T00:56:51.984Z,11.90
2019-05-22T00:59:19.570Z,11.80
2019-05-22T01:01:47.971Z,11.80
2019-05-22T01:04:15.458Z,11.90
2019-05-22T01:06:42.957Z,11.90
2019-05-22T01:09:10.796Z,11.90
2019-05-22T01:11:38.278Z,11.80
2019-05-22T01:14:05.779Z,11.80
2019-05-22T01:16:33.262Z,11.90
2019-05-22T01:19:01.522Z,12.00
2019-05-22T01:21:29.046Z,11.90
2019-05-22T01:23:56.556Z,12.00
2019-05-22T01:26:24.044Z,11.90
2019-05-22T01:28:51.538Z,11.70
2019-05-22T01:31:25.659Z,11.70
2019-05-22T01:33:54.048Z,11.70
2019-05-22T01:36:25.005Z,11.70
2019-05-22T01:38:52.715Z,11.60
2019-05-22T01:41:24.924Z,11.80
2019-05-22T01:43:52.448Z,11.80
2019-05-22T01:46:19.950Z,11.80
2019-05-22T01:48:47.466Z,11.80
2019-05-22T01:51:15.892Z,11.70
2019-05-22T01:53:43.399Z,11.70
2019-05-22T01:56:11.808Z,11.60
2019-05-22T01:58:39.238Z,11.60
2019-05-22T02:01:23.413Z,11.70
2019-05-22T02:03:51.241Z,11.70
2019-05-22T02:06:19.275Z,11.70
2019-05-22T02:08:47.582Z,11.80
2019-05-22T02:11:15.079Z,11.80
2019-05-22T02:13:47.238Z,11.80
2019-05-22T02:16:14.896Z,11.80
2019-05-22T02:18:42.377Z,11.80
2019-05-22T02:21:10.641Z,11.70
2019-05-22T02:23:39.641Z,11.80
2019-05-22T02:26:07.669Z,11.80
2019-05-22T02:28:35.749Z,11.80
2019-05-22T02:31:04.691Z,11.80
2019-05-22T02:33:32.257Z,11.70
2019-05-22T02:35:59.752Z,11.70
2019-05-22T02:38:27.429Z,11.70
2019-05-22T02:40:55.755Z,11.70
2019-05-22T02:43:23.245Z,11.60
2019-05-22T02:45:51.700Z,11.60
2019-05-22T02:48:19.398Z,11.60
2019-05-22T02:50:47.665Z,11.70
2019-05-22T02:53:15.949Z,11.70
2019-05-22T02:55:44.229Z,11.70
2019-05-22T02:58:12.717Z,11.70
2019-05-22T03:03:36.314Z,11.60
2019-05-22T03:06:05.574Z,11.80
2019-05-22T03:11:28.348Z,11.80
2019-05-22T03:13:55.898Z,11.80
2019-05-22T03:16:23.676Z,11.80
2019-05-22T03:19:07.799Z,11.80
2019-05-22T03:21:18.898Z,11.80
2019-05-22T03:23:46.414Z,11.60
2019-05-22T03:26:14.093Z,11.60
2019-05-22T03:28:41.809Z,11.30
2019-05-22T03:31:09.352Z,11.50
2019-05-22T03:33:36.835Z,11.40
2019-05-22T03:36:07.164Z,11.30
2019-05-22T03:38:34.713Z,11.40
2019-05-22T03:41:04.680Z,11.40
2019-05-22T03:43:32.221Z,11.40
2019-05-22T03:46:00.684Z,11.40
2019-05-22T03:48:29.826Z,11.40
2019-05-22T03:50:58.490Z,11.50
2019-05-22T03:53:26.042Z,11.40
2019-05-22T03:55:53.615Z,11.40
2019-05-22T03:58:21.126Z,11.40
2019-05-22T04:00:50.100Z,11.50
2019-05-22T04:03:18.520Z,11.50
2019-05-22T04:05:46.028Z,11.50
2019-05-22T04:08:14.303Z,11.40
2019-05-22T04:10:51.685Z,11.40
2019-05-22T04:13:19.248Z,11.40
2019-05-22T04:15:46.814Z,11.40
2019-05-22T04:18:14.316Z,11.40
2019-05-22T04:20:41.848Z,11.50
2019-05-22T04:23:09.396Z,11.60
2019-05-22T04:25:36.922Z,11.50
2019-05-22T04:28:04.430Z,11.50
2019-05-22T04:30:31.933Z,11.50
2019-05-22T04:32:59.666Z,11.50
2019-05-22T04:35:27.294Z,11.40
2019-05-22T04:37:54.791Z,11.40
2019-05-22T04:43:23.155Z,11.50
2019-05-22T04:45:50.845Z,11.40
2019-05-22T04:48:18.362Z,11.40
2019-05-22T04:50:45.903Z,11.40
2019-05-22T04:53:13.425Z,11.40
2019-05-22T04:55:41.088Z,11.40
2019-05-22T04:58:12.554Z,11.40
2019-05-22T05:00:40.799Z,11.50
2019-05-22T05:03:09.064Z,11.40
2019-05-22T05:05:41.037Z,11.50
2019-05-22T05:08:08.653Z,11.50
2019-05-22T05:10:36.468Z,11.50
2019-05-22T05:13:04.036Z,11.50
2019-05-22T05:15:31.638Z,11.60
2019-05-22T05:17:59.207Z,11.60
2019-05-22T05:20:26.875Z,11.60
2019-05-22T05:22:54.358Z,11.60
2019-05-22T05:25:22.709Z,11.50
2019-05-22T05:27:50.382Z,11.50
2019-05-22T05:30:17.865Z,11.40
2019-05-22T05:32:46.131Z,11.40
2019-05-22T05:35:14.419Z,11.50
2019-05-22T05:37:42.789Z,11.50
2019-05-22T05:43:07.656Z,11.60
2019-05-22T05:45:35.155Z,11.70
2019-05-22T05:48:04.467Z,11.70
2019-05-22T05:50:39.444Z,11.80
2019-05-22T05:53:01.231Z,11.80
2019-05-22T05:55:29.515Z,11.80
2019-05-22T06:01:01.984Z,11.80
2019-05-22T06:03:32.194Z,11.80
2019-05-22T06:06:01.597Z,11.80
2019-05-22T06:08:29.178Z,11.90
2019-05-22T06:11:18.123Z,11.90
2019-05-22T06:13:45.711Z,12.00
2019-05-22T06:19:30.253Z,12.20
2019-05-22T06:21:57.746Z,12.20
2019-05-22T06:25:01.778Z,12.50
2019-05-22T06:27:29.340Z,12.50
2019-05-22T06:29:57.020Z,12.80
2019-05-22T06:35:23.222Z,12.80
2019-05-22T06:40:50.972Z,12.90
2019-05-22T06:46:47.453Z,12.80
2019-05-22T06:49:36.223Z,13.00
2019-05-22T06:52:05.763Z,13.00
2019-05-22T06:54:34.138Z,13.20
2019-05-22T06:57:02.025Z,13.20
2019-05-22T06:59:30.366Z,13.30
2019-05-22T07:02:01.259Z,13.20
2019-05-22T07:04:25.382Z,13.40
2019-05-22T07:06:52.883Z,13.30
2019-05-22T07:09:21.245Z,13.50
2019-05-22T07:11:48.760Z,13.50
2019-05-22T07:14:16.243Z,13.60
2019-05-22T07:16:43.826Z,13.50
2019-05-22T07:19:11.424Z,13.40
2019-05-22T07:21:39.671Z,13.60
2019-05-22T07:24:07.168Z,13.60
2019-05-22T07:26:35.578Z,13.80
2019-05-22T07:29:05.177Z,13.80
2019-05-22T07:31:31.485Z,13.80
2019-05-22T07:33:59.139Z,13.70
2019-05-22T07:36:26.807Z,13.80
2019-05-22T07:38:54.300Z,13.90
2019-05-22T07:41:22.569Z,14.20
2019-05-22T07:43:51.042Z,14.10
2019-05-22T07:46:19.291Z,14.00
2019-05-22T07:48:46.797Z,14.00
2019-05-22T07:51:15.190Z,13.80
2019-05-22T07:53:42.695Z,13.80
2019-05-22T07:56:10.620Z,14.00
2019-05-22T07:58:38.170Z,14.00
2019-05-22T08:01:05.653Z,13.90
2019-05-22T08:03:33.978Z,14.20
2019-05-22T08:06:01.569Z,14.20
2019-05-22T08:08:29.155Z,14.00
2019-05-22T08:10:57.526Z,14.10
2019-05-22T08:13:25.303Z,14.10
2019-05-22T08:15:53.667Z,14.20
2019-05-22T08:18:21.155Z,14.20
2019-05-22T08:20:49.428Z,14.10
2019-05-22T08:23:16.919Z,14.10
2019-05-22T08:25:44.431Z,14.00
2019-05-22T08:28:12.070Z,14.30
2019-05-22T08:30:40.194Z,14.50
2019-05-22T08:33:07.670Z,14.70
2019-05-22T08:35:35.959Z,14.60
2019-05-22T08:38:04.910Z,14.70
2019-05-22T08:40:32.393Z,14.60
2019-05-22T08:43:00.037Z,14.80
2019-05-22T08:45:27.536Z,14.70
2019-05-22T08:47:55.899Z,14.50
2019-05-22T08:50:23.388Z,14.50
2019-05-22T08:52:51.754Z,14.70
2019-05-22T08:55:19.284Z,14.60
2019-05-22T08:57:46.969Z,14.80
2019-05-22T09:00:14.656Z,14.90
2019-05-22T09:02:42.913Z,14.90
2019-05-22T09:05:11.735Z,14.90
2019-05-22T09:07:40.110Z,14.80
2019-05-22T09:10:08.475Z,15.10
2019-05-22T09:12:35.971Z,15.10
2019-05-22T09:15:04.652Z,15.30
2019-05-22T09:17:32.894Z,15.30
2019-05-22T09:20:00.381Z,15.30
2019-05-22T09:22:39.982Z,15.30
2019-05-22T09:24:56.133Z,15.40
2019-05-22T09:27:24.568Z,15.70
2019-05-22T09:29:52.056Z,15.70
2019-05-22T09:32:20.495Z,15.80
2019-05-22T09:34:48.148Z,15.80
2019-05-22T09:37:16.402Z,15.80
2019-05-22T09:39:44.094Z,15.80
2019-05-22T09:42:12.538Z,16.10
2019-05-22T09:44:40.121Z,16.10
2019-05-22T09:47:08.449Z,16.00
2019-05-22T09:49:35.942Z,16.00
2019-05-22T09:52:04.559Z,16.10
2019-05-22T09:54:32.804Z,16.10
2019-05-22T09:57:00.586Z,16.10
2019-05-22T09:59:28.155Z,16.10
2019-05-22T10:01:57.260Z,16.10
2019-05-22T10:04:24.775Z,16.10
2019-05-22T10:06:52.306Z,16.10
2019-05-22T10:09:20.649Z,16.20
2019-05-22T10:11:48.330Z,16.10
2019-05-22T10:14:15.807Z,16.40
2019-05-22T10:16:43.875Z,16.70
2019-05-22T10:19:11.466Z,16.70
2019-05-22T10:21:40.615Z,16.70
2019-05-22T10:24:08.806Z,16.70
2019-05-22T10:26:36.461Z,16.80
2019-05-22T10:29:04.072Z,16.90
2019-05-22T10:31:32.428Z,17.00
2019-05-22T10:33:59.944Z,17.00
2019-05-22T10:36:27.663Z,16.90
2019-05-22T10:38:56.052Z,17.00
2019-05-22T10:41:24.435Z,17.10
2019-05-22T10:43:52.091Z,17.10
2019-05-22T10:46:19.577Z,17.20
2019-05-22T10:48:47.838Z,17.30
2019-05-22T10:51:15.392Z,17.30
2019-05-22T10:53:43.636Z,17.30
2019-05-22T10:56:11.296Z,17.30
2019-05-22T10:58:38.813Z,17.40
2019-05-22T11:01:06.323Z,17.50
2019-05-22T11:03:33.833Z,17.40
2019-05-22T11:06:07.018Z,17.70
2019-05-22T11:08:33.582Z,17.60
2019-05-22T11:10:56.339Z,17.70
2019-05-22T11:13:24.734Z,17.70
2019-05-22T11:15:53.015Z,17.70
2019-05-22T11:18:21.375Z,17.80
2019-05-22T11:20:49.702Z,17.80
2019-05-22T11:23:17.235Z,17.80
2019-05-22T11:25:45.525Z,17.90
2019-05-22T11:28:13.938Z,17.80
2019-05-22T11:30:41.594Z,17.80
2019-05-22T11:33:09.980Z,17.80
2019-05-22T11:35:37.554Z,17.80
2019-05-22T11:38:05.775Z,17.90
2019-05-22T11:40:33.300Z,17.90
2019-05-22T11:43:01.414Z,18.00
2019-05-22T11:45:29.009Z,17.80
2019-05-22T11:47:57.279Z,17.60
2019-05-22T11:50:24.760Z,17.60
2019-05-22T11:52:53.135Z,17.80
2019-05-22T11:55:21.396Z,17.90
2019-05-22T11:57:49.067Z,17.90
2019-05-22T12:00:17.408Z,17.80
2019-05-22T12:02:45.238Z,17.80
2019-05-22T12:05:13.578Z,18.10
2019-05-22T12:07:41.058Z,18.10
2019-05-22T12:10:09.592Z,18.30
2019-05-22T12:12:37.091Z,18.20
2019-05-22T12:15:06.559Z,18.30
2019-05-22T12:17:38.163Z,18.50
2019-05-22T12:20:01.658Z,18.30
2019-05-22T12:22:29.227Z,18.50
2019-05-22T12:24:57.511Z,18.70
2019-05-22T12:27:25.796Z,18.40
2019-05-22T12:29:54.049Z,18.40
2019-05-22T12:32:21.718Z,18.40
2019-05-22T12:34:49.862Z,18.50
2019-05-22T12:37:17.081Z,18.20
2019-05-22T12:39:44.715Z,18.40
2019-05-22T12:42:12.283Z,18.40
2019-05-22T12:44:40.641Z,18.80
2019-05-22T12:47:08.235Z,18.80
2019-05-22T12:49:35.910Z,19.10
2019-05-22T12:52:04.835Z,19.20
2019-05-22T12:54:46.197Z,19.20
2019-05-22T12:57:00.786Z,19.10
2019-05-22T12:59:28.299Z,19.10
2019-05-22T13:01:56.696Z,19.60
2019-05-22T13:04:24.272Z,19.60
2019-05-22T13:06:52.629Z,19.20
2019-05-22T13:09:20.123Z,19.20
2019-05-22T13:11:48.375Z,18.80
2019-05-22T13:14:15.864Z,18.80
2019-05-22T13:19:12.298Z,18.90
2019-05-22T13:21:40.411Z,19.00
2019-05-22T13:24:07.930Z,18.90
2019-05-22T13:26:35.603Z,19.30
2019-05-22T13:29:04.607Z,19.70
2019-05-22T13:31:32.269Z,19.70
2019-05-22T13:33:59.766Z,20.10
2019-05-22T13:36:27.254Z,20.10
2019-05-22T13:38:54.744Z,20.30
2019-05-22T13:41:22.435Z,20.10
2019-05-22T13:43:49.924Z,20.00
2019-05-22T13:46:17.551Z,20.00
2019-05-22T13:48:45.758Z,19.60
2019-05-22T13:51:14.250Z,19.30
2019-05-22T13:53:41.951Z,19.30
2019-05-22T13:56:09.940Z,19.70
2019-05-22T13:58:37.524Z,19.90
2019-05-22T14:01:05.021Z,20.20
2019-05-22T14:03:33.045Z,20.30
2019-05-22T14:06:00.710Z,20.10
2019-05-22T14:08:28.190Z,20.20
2019-05-22T14:10:55.753Z,20.50
2019-05-22T14:13:23.237Z,20.40
2019-05-22T14:15:56.510Z,19.70
2019-05-22T14:18:20.929Z,19.70
2019-05-22T14:20:49.283Z,19.40
2019-05-22T14:23:16.832Z,19.50
2019-05-22T14:25:45.179Z,19.60
2019-05-22T14:28:14.174Z,19.70
2019-05-22T14:30:41.900Z,19.50
2019-05-22T14:33:09.423Z,19.70
2019-05-22T14:35:47.525Z,19.50
2019-05-22T14:38:04.443Z,19.60
2019-05-22T14:40:32.473Z,19.70
2019-05-22T14:42:59.954Z,19.90
2019-05-22T14:45:27.605Z,19.80
2019-05-22T14:47:55.161Z,20.10
2019-05-22T14:50:22.758Z,20.40
2019-05-22T14:52:50.439Z,20.40
2019-05-22T14:55:18.052Z,20.70
2019-05-22T14:57:45.575Z,20.10
2019-05-22T15:00:13.060Z,19.80
2019-05-22T15:02:40.596Z,20.10
2019-05-22T15:05:08.331Z,20.00
2019-05-22T15:07:36.717Z,19.50
2019-05-22T15:10:05.786Z,19.70
2019-05-22T15:12:33.284Z,19.60
2019-05-22T15:15:01.704Z,20.10
2019-05-22T15:17:32.843Z,20.00
2019-05-22T15:19:57.491Z,19.90
2019-05-22T15:22:26.253Z,20.60
2019-05-22T15:24:54.914Z,20.80
2019-05-22T15:27:22.530Z,20.80
2019-05-22T15:32:19.180Z,21.00
2019-05-22T15:34:46.790Z,21.10
